createdAt,value
2024-05-09T00:00:40.882Z,11.90
2024-05-09T00:04:49.956Z,11.90
2024-05-09T00:08:58.607Z,11.80
2024-05-09T00:13:08.287Z,11.80
2024-05-09T00:17:17.120Z,11.80
2024-05-09T00:21:25.798Z,11.70
2024-05-09T00:25:34.396Z,11.70
2024-05-09T00:29:42.941Z,11.70
2024-05-09T00:33:51.829Z,11.70
2024-05-09T00:38:01.099Z,11.60
2024-05-09T00:42:09.781Z,11.60
2024-05-09T00:46:18.909Z,11.50
2024-05-09T00:50:35.569Z,11.50
2024-05-09T00:54:38.308Z,11.50
2024-05-09T00:59:07.160Z,11.50
2024-05-09T01:03:16.024Z,11.50
2024-05-09T01:07:25.575Z,11.50
2024-05-09T01:11:41.006Z,11.40
2024-05-09T01:15:50.063Z,11.30
2024-05-09T01:19:58.705Z,11.30
2024-05-09T01:24:07.337Z,11.30
2024-05-09T01:28:16.296Z,11.30
2024-05-09T01:32:25.262Z,11.30
2024-05-09T01:36:33.918Z,11.20
2024-05-09T01:40:43.496Z,11.20
2024-05-09T01:44:52.183Z,11.10
2024-05-09T01:49:00.846Z,11.20
2024-05-09T01:53:14.727Z,11.10
2024-05-09T01:57:23.931Z,11.10
2024-05-09T02:01:55.408Z,11.10
2024-05-09T02:05:43.658Z,11.10
2024-05-09T02:09:55.046Z,11.10
2024-05-09T02:14:03.780Z,11.00
2024-05-09T02:18:13.118Z,11.00
2024-05-09T02:22:22.263Z,11.00
2024-05-09T02:26:30.992Z,11.00
2024-05-09T02:30:41.736Z,11.00
2024-05-09T02:34:49.889Z,10.90
2024-05-09T02:38:58.445Z,10.90
2024-05-09T02:43:09.530Z,10.90
2024-05-09T02:47:18.547Z,10.90
2024-05-09T02:51:27.142Z,10.90
2024-05-09T02:55:35.803Z,10.90
2024-05-09T02:59:48.279Z,10.90
2024-05-09T03:04:08.993Z,10.90
2024-05-09T03:08:17.726Z,10.90
2024-05-09T03:12:26.335Z,10.90
2024-05-09T03:16:40.923Z,11.00
2024-05-09T03:20:49.747Z,10.90
2024-05-09T03:24:58.405Z,10.80
2024-05-09T03:29:06.960Z,10.80
2024-05-09T03:33:20.240Z,10.80
2024-05-09T03:37:28.814Z,10.80
2024-05-09T03:41:37.472Z,10.80
2024-05-09T03:45:48.132Z,10.80
2024-05-09T03:50:05.493Z,10.80
2024-05-09T03:54:13.309Z,10.80
2024-05-09T03:58:21.882Z,10.90
2024-05-09T04:02:43.039Z,10.90
2024-05-09T04:06:51.760Z,10.80
2024-05-09T04:11:00.472Z,10.70
2024-05-09T04:15:12.861Z,10.80
2024-05-09T04:19:19.696Z,10.80
2024-05-09T04:23:47.713Z,10.80
2024-05-09T04:27:56.451Z,10.70
2024-05-09T04:32:08.817Z,10.70
2024-05-09T04:36:17.507Z,10.70
2024-05-09T04:40:33.048Z,10.60
2024-05-09T04:44:36.333Z,10.60
2024-05-09T04:48:45.153Z,10.70
2024-05-09T04:52:54.043Z,10.70
2024-05-09T04:57:02.619Z,10.70
2024-05-09T05:01:11.222Z,10.80
2024-05-09T05:05:19.933Z,10.80
2024-05-09T05:09:28.479Z,10.80
2024-05-09T05:13:40.139Z,10.90
2024-05-09T05:17:47.621Z,11.00
2024-05-09T05:21:56.607Z,11.00
2024-05-09T05:26:06.440Z,11.10
2024-05-09T05:30:21.254Z,11.20
2024-05-09T05:34:25.297Z,11.30
2024-05-09T05:38:33.887Z,11.40
2024-05-09T05:42:42.483Z,11.40
2024-05-09T05:46:51.233Z,11.50
2024-05-09T05:51:02.692Z,11.50
2024-05-09T05:55:09.976Z,11.70
2024-05-09T05:59:18.693Z,11.80
2024-05-09T06:03:29.264Z,11.90
2024-05-09T06:07:37.975Z,11.90
2024-05-09T06:11:46.935Z,12.00
2024-05-09T06:15:55.811Z,12.10
2024-05-09T06:20:31.890Z,12.20
2024-05-09T06:24:34.093Z,12.30
2024-05-09T06:28:42.813Z,12.40
2024-05-09T06:32:51.556Z,12.40
2024-05-09T06:37:00.354Z,12.50
2024-05-09T06:41:09.152Z,12.60
2024-05-09T06:45:17.837Z,12.70
2024-05-09T06:49:28.186Z,12.80
2024-05-09T06:53:37.735Z,12.90
2024-05-09T06:57:46.505Z,13.00
2024-05-09T07:01:55.113Z,13.10
2024-05-09T07:06:03.896Z,13.20
2024-05-09T07:10:18.070Z,13.50
2024-05-09T07:14:22.809Z,13.50
2024-05-09T07:18:31.796Z,13.60
2024-05-09T07:22:40.739Z,13.70
2024-05-09T07:26:49.451Z,13.80
2024-05-09T07:30:58.091Z,13.90
2024-05-09T07:35:07.038Z,14.00
2024-05-09T07:39:15.667Z,14.10
2024-05-09T07:43:24.286Z,14.30
2024-05-09T07:55:53.565Z,14.80
2024-05-09T08:00:03.301Z,14.90
2024-05-09T08:04:12.182Z,15.00
2024-05-09T08:08:20.984Z,15.20
2024-05-09T08:12:29.751Z,15.30
2024-05-09T08:16:38.480Z,15.40
2024-05-09T08:20:49.771Z,15.50
2024-05-09T08:24:58.964Z,15.60
2024-05-09T08:29:07.595Z,15.70
2024-05-09T08:33:16.304Z,15.90
2024-05-09T08:37:29.432Z,16.10
2024-05-09T08:41:38.407Z,16.20
2024-05-09T08:45:53.343Z,16.40
2024-05-09T08:54:13.079Z,16.70
2024-05-09T08:58:21.902Z,16.70
2024-05-09T09:02:31.216Z,17.00
2024-05-09T09:06:45.437Z,17.10
2024-05-09T09:10:57.167Z,17.30
2024-05-09T09:15:05.884Z,17.40
2024-05-09T09:19:14.748Z,17.50
2024-05-09T09:23:23.427Z,17.70
2024-05-09T09:27:34.091Z,17.90
2024-05-09T09:31:42.715Z,18.10
2024-05-09T09:35:51.326Z,18.10
2024-05-09T09:40:00.627Z,18.30
2024-05-09T09:44:10.454Z,18.30
2024-05-09T09:48:22.055Z,18.60
2024-05-09T09:52:31.429Z,18.80
2024-05-09T09:56:40.538Z,18.90
2024-05-09T10:00:49.261Z,18.90
2024-05-09T10:04:58.090Z,19.00
2024-05-09T10:09:06.812Z,19.20
2024-05-09T10:13:16.371Z,19.30
2024-05-09T10:17:25.465Z,19.40
2024-05-09T10:21:34.262Z,19.40
2024-05-09T10:25:42.922Z,19.50
2024-05-09T10:29:56.434Z,19.60
2024-05-09T10:34:06.839Z,19.70
2024-05-09T10:38:16.355Z,19.80
2024-05-09T10:42:26.412Z,19.90
2024-05-09T10:46:35.015Z,20.10
2024-05-09T10:50:45.329Z,20.30
2024-05-09T10:54:54.599Z,20.40
2024-05-09T10:59:06.494Z,20.70
2024-05-09T11:03:16.427Z,20.80
2024-05-09T11:07:25.234Z,20.80
2024-05-09T11:11:34.008Z,20.90
2024-05-09T11:15:43.261Z,20.80
2024-05-09T11:19:52.026Z,20.80
2024-05-09T11:24:01.050Z,20.90
2024-05-09T11:28:09.766Z,20.70
2024-05-09T11:32:30.077Z,20.40
2024-05-09T11:36:39.019Z,20.70
2024-05-09T11:40:47.749Z,21.10
2024-05-09T11:44:56.417Z,20.90
2024-05-09T11:49:05.168Z,20.60
2024-05-09T11:53:13.909Z,20.30
2024-05-09T11:57:24.148Z,20.70
2024-05-09T12:01:32.898Z,21.20
2024-05-09T12:05:41.882Z,21.20
2024-05-09T12:09:50.743Z,21.00
2024-05-09T12:13:59.324Z,20.70
2024-05-09T12:18:08.613Z,20.60
2024-05-09T12:22:17.610Z,20.70
2024-05-09T12:26:27.441Z,20.50
2024-05-09T12:30:40.256Z,20.40
2024-05-09T12:34:48.033Z,20.60
2024-05-09T12:38:56.606Z,21.10
2024-05-09T12:43:05.714Z,21.60
2024-05-09T12:47:14.481Z,21.90
2024-05-09T12:51:23.102Z,21.80
2024-05-09T12:55:37.746Z,21.50
2024-05-09T12:59:43.258Z,21.20
2024-05-09T13:03:52.091Z,20.90
2024-05-09T13:08:00.952Z,21.20
2024-05-09T13:12:09.624Z,21.70
2024-05-09T13:16:18.289Z,22.00
2024-05-09T13:20:32.792Z,22.20
2024-05-09T13:24:37.466Z,22.40
2024-05-09T13:28:46.081Z,22.60
2024-05-09T13:32:55.913Z,22.40
2024-05-09T13:37:04.813Z,22.40
2024-05-09T13:41:13.375Z,22.10
2024-05-09T13:45:21.913Z,22.40
2024-05-09T13:49:30.610Z,22.60
2024-05-09T13:53:39.245Z,22.90
2024-05-09T13:57:47.988Z,23.00
2024-05-09T14:01:56.844Z,22.80
2024-05-09T14:06:07.028Z,22.80
2024-05-09T14:10:23.195Z,22.90
2024-05-09T14:14:26.150Z,22.90
2024-05-09T14:18:35.474Z,22.60
2024-05-09T14:22:44.051Z,22.30
2024-05-09T14:26:52.645Z,22.20
2024-05-09T14:31:01.518Z,21.80
2024-05-09T14:35:10.258Z,21.60
2024-05-09T14:39:19.002Z,21.50
2024-05-09T14:43:27.603Z,21.50
2024-05-09T14:47:37.331Z,21.40
2024-05-09T14:52:06.956Z,21.20
2024-05-09T14:56:15.561Z,21.30
2024-05-09T15:00:28.952Z,21.40
2024-05-09T15:04:34.476Z,21.50
2024-05-09T15:08:43.093Z,21.40
2024-05-09T15:12:51.852Z,21.60
2024-05-09T15:17:00.484Z,21.70
2024-05-09T15:21:09.160Z,21.60
2024-05-09T15:25:18.142Z,21.50
2024-05-09T15:29:34.481Z,21.30
2024-05-09T15:33:43.277Z,21.20
2024-05-09T15:37:52.100Z,21.20
2024-05-09T15:42:00.675Z,21.20
2024-05-09T15:46:09.600Z,21.20
2024-05-09T15:50:28.184Z,21.20
2024-05-09T15:54:28.614Z,21.20
2024-05-09T15:58:37.208Z,21.30
2024-05-09T16:02:46.013Z,21.40
2024-05-09T16:06:54.931Z,21.40
2024-05-09T16:11:03.952Z,21.60
2024-05-09T16:15:12.772Z,21.60
2024-05-09T16:19:21.698Z,21.40
2024-05-09T16:23:30.541Z,21.40
2024-05-09T16:27:39.501Z,21.20
2024-05-09T16:31:48.117Z,21.10
2024-05-09T16:35:56.973Z,21.00
2024-05-09T16:40:09.897Z,21.00
2024-05-09T16:44:16.263Z,20.80
2024-05-09T16:48:25.161Z,20.70
2024-05-09T16:52:33.852Z,20.80
2024-05-09T16:56:42.579Z,20.80
2024-05-09T17:00:51.684Z,20.80
2024-05-09T17:05:00.657Z,20.70
2024-05-09T17:09:11.991Z,20.70
2024-05-09T17:13:20.400Z,20.60
2024-05-09T17:17:29.234Z,20.50
2024-05-09T17:21:38.353Z,20.50
2024-05-09T17:25:47.053Z,20.50
2024-05-09T17:29:55.905Z,20.40
2024-05-09T17:34:04.659Z,20.30
2024-05-09T17:38:13.563Z,20.20
2024-05-09T17:42:22.201Z,20.20
2024-05-09T17:46:31.049Z,20.10
2024-05-09T17:50:41.231Z,20.00
2024-05-09T17:54:50.701Z,19.90
2024-05-09T17:58:59.915Z,19.80
2024-05-09T18:03:28.079Z,19.70
2024-05-09T18:07:36.848Z,19.60
2024-05-09T18:11:45.513Z,19.50
2024-05-09T18:15:54.385Z,19.40
2024-05-09T18:20:05.321Z,19.30
2024-05-09T18:24:14.165Z,19.20
2024-05-09T18:28:23.476Z,19.10
2024-05-09T18:32:32.329Z,19.00
2024-05-09T18:36:41.772Z,18.90
2024-05-09T18:40:50.505Z,18.70
2024-05-09T18:44:59.208Z,18.60
2024-05-09T18:49:08.277Z,18.60
2024-05-09T18:53:17.043Z,18.50
2024-05-09T18:57:45.004Z,18.40
2024-05-09T19:01:53.692Z,18.30
2024-05-09T19:06:02.438Z,18.10
2024-05-09T19:10:22.001Z,17.90
2024-05-09T19:14:21.447Z,17.90
2024-05-09T19:18:33.172Z,17.80
2024-05-09T19:22:41.990Z,17.80
2024-05-09T19:26:50.666Z,17.70
2024-05-09T19:30:59.460Z,17.60
2024-05-09T19:35:08.193Z,17.60
2024-05-09T19:39:16.879Z,17.50
2024-05-09T19:43:25.513Z,17.40
2024-05-09T19:47:34.523Z,17.30
2024-05-09T19:51:43.216Z,17.10
2024-05-09T19:55:51.848Z,17.10
2024-05-09T20:00:00.818Z,17.00
2024-05-09T20:04:09.541Z,16.90
2024-05-09T20:08:18.290Z,16.80
2024-05-09T20:12:26.892Z,16.80
2024-05-09T20:16:35.504Z,16.80
2024-05-09T20:20:45.513Z,16.70
2024-05-09T20:24:54.656Z,16.60
2024-05-09T20:29:03.259Z,16.60
2024-05-09T20:33:13.667Z,16.40
2024-05-09T20:37:22.969Z,16.40
2024-05-09T20:41:33.600Z,16.40
2024-05-09T20:45:42.030Z,16.30
2024-05-09T20:49:50.982Z,16.30
2024-05-09T20:53:59.596Z,16.10
2024-05-09T20:58:09.240Z,16.00
2024-05-09T21:02:18.298Z,16.00
2024-05-09T21:06:27.062Z,16.00
2024-05-09T21:10:37.097Z,15.90
2024-05-09T21:14:46.064Z,15.90
2024-05-09T21:18:54.674Z,15.80
2024-05-09T21:23:04.044Z,15.80
2024-05-09T21:27:13.856Z,15.70
2024-05-09T21:31:22.438Z,15.70
2024-05-09T21:35:31.028Z,15.60
2024-05-09T21:39:39.644Z,15.50
2024-05-09T21:43:48.231Z,15.40
2024-05-09T21:47:56.886Z,15.30
2024-05-09T21:52:05.960Z,15.30
2024-05-09T21:56:14.522Z,15.20
2024-05-09T22:00:29.220Z,15.20
2024-05-09T22:04:33.594Z,15.20
2024-05-09T22:08:42.249Z,15.10
2024-05-09T22:12:50.847Z,15.10
2024-05-09T22:16:59.475Z,15.00
2024-05-09T22:21:11.231Z,14.90
2024-05-09T22:25:19.935Z,14.90
2024-05-09T22:29:28.665Z,14.80
2024-05-09T22:33:37.417Z,14.80
2024-05-09T22:37:46.063Z,14.70
2024-05-09T22:41:54.642Z,14.60
2024-05-09T22:46:04.302Z,14.60
2024-05-09T22:50:16.127Z,14.50
2024-05-09T22:54:42.475Z,14.40
2024-05-09T22:58:51.064Z,14.30
2024-05-09T23:03:01.350Z,14.30
2024-05-09T23:07:10.501Z,14.30
2024-05-09T23:11:19.088Z,14.20
2024-05-09T23:15:27.747Z,14.10
2024-05-09T23:19:36.487Z,14.00
2024-05-09T23:23:45.160Z,13.90
2024-05-09T23:27:53.716Z,13.80
2024-05-09T23:32:14.667Z,13.80
2024-05-09T23:36:23.248Z,13.70
2024-05-09T23:44:42.004Z,13.60
2024-05-09T23:48:50.776Z,13.60
2024-05-09T23:52:59.422Z,13.50
2024-05-09T23:57:08.277Z,13.50
